Time;durP1;ratioP1;P1;durP2;ratioP2;P2;SDS_P1;SDS_P2;PMS_P1;PMS_P2;Temp;Humidity;BMP_temperature;BMP_pressure;BME280_temperature;BME280_humidity;BME280_pressure;Samples;Min_cycle;Max_cycle;Signal;HPM_P1;HPM_P2
2023/08/20 00:00:47;;;;;;;5.72;5.15;;;;;;;23.89;100.00;100736.19;5032169;28;21660;-76
2023/08/20 00:03:16;;;;;;;6.65;5.80;;;;;;;23.90;100.00;100740.59;5008234;28;20046;-74
2023/08/20 00:05:47;;;;;;;7.25;5.43;;;;;;;23.87;100.00;100730.06;5009382;28;20079;-74
2023/08/20 00:08:18;;;;;;;9.88;6.35;;;;;;;23.77;100.00;100716.56;5031354;28;20136;-73
2023/08/20 00:10:51;;;;;;;8.52;5.68;;;;;;;23.73;100.00;100717.91;5013378;28;20038;-74
2023/08/20 00:13:22;;;;;;;7.32;5.00;;;;;;;23.75;100.00;100736.69;5005477;28;20563;-73
2023/08/20 00:15:51;;;;;;;6.35;5.32;;;;;;;23.65;100.00;100725.88;5030589;28;20077;-74
2023/08/20 00:18:21;;;;;;;9.17;5.87;;;;;;;23.65;100.00;100735.84;5033133;28;20083;-73
2023/08/20 00:20:50;;;;;;;6.95;5.18;;;;;;;23.62;100.00;100747.81;4999600;28;20049;-73
2023/08/20 00:23:24;;;;;;;7.30;5.50;;;;;;;23.55;100.00;100746.72;5006134;28;20041;-74
2023/08/20 00:25:52;;;;;;;9.27;6.63;;;;;;;23.43;100.00;100740.59;5031427;28;20041;-74
2023/08/20 00:28:22;;;;;;;9.85;6.45;;;;;;;23.50;100.00;100753.50;5006166;28;20041;-74
2023/08/20 00:30:53;;;;;;;7.55;6.38;;;;;;;23.44;100.00;100747.72;4994871;28;20050;-74
2023/08/20 00:33:21;;;;;;;8.35;6.45;;;;;;;23.40;100.00;100745.44;5005855;28;20529;-74
2023/08/20 00:35:49;;;;;;;8.63;7.55;;;;;;;23.31;100.00;100732.78;5033682;28;20099;-74
2023/08/20 00:38:17;;;;;;;9.70;6.93;;;;;;;23.09;100.00;100702.41;5013562;28;20584;-75
2023/08/20 00:40:46;;;;;;;10.93;6.80;;;;;;;23.27;100.00;100740.34;5029019;28;20037;-72
2023/08/20 00:43:15;;;;;;;9.32;7.28;;;;;;;23.25;100.00;100749.59;5011448;28;20503;-72
2023/08/20 00:45:46;;;;;;;9.77;7.20;;;;;;;23.20;100.00;100747.31;4999046;28;20449;-73
2023/08/20 00:48:14;;;;;;;8.55;7.05;;;;;;;23.17;100.00;100744.91;4996074;28;20050;-73
2023/08/20 00:50:45;;;;;;;;;;;;;;;23.13;100.00;100743.50;5010992;28;20077;-73
2023/08/20 00:53:18;;;;;;;7.68;5.82;;;;;;;23.08;100.00;100743.91;5022232;28;19932;-73
2023/08/20 00:55:48;;;;;;;7.85;6.68;;;;;;;23.07;100.00;100741.38;5013071;28;20067;-73
2023/08/20 00:58:17;;;;;;;9.20;6.22;;;;;;;23.05;100.00;100737.94;5008592;28;20049;-73
2023/08/20 01:00:53;;;;;;;9.63;7.13;;;;;;;22.99;100.00;100741.22;4989919;28;20060;-73
2023/08/20 01:03:21;;;;;;;10.02;6.45;;;;;;;22.92;100.00;100740.94;5007440;28;20046;-73
2023/08/20 01:05:59;;;;;;;10.45;6.65;;;;;;;22.84;100.00;100731.84;4995939;28;20050;-75
2023/08/20 01:08:40;;;;;;;9.10;6.43;;;;;;;22.79;100.00;100732.28;5011801;28;20117;-73
2023/08/20 01:11:17;;;;;;;6.90;5.65;;;;;;;22.72;100.00;100723.84;5028272;28;20045;-73
2023/08/20 01:13:46;;;;;;;7.63;6.38;;;;;;;22.71;100.00;100722.16;5022516;28;20041;-74
2023/08/20 01:16:23;;;;;;;7.18;6.45;;;;;;;22.70;100.00;100730.38;4998190;28;20049;-73
2023/08/20 01:18:51;;;;;;;7.13;5.97;;;;;;;22.65;100.00;100728.13;4997485;28;20128;-73
2023/08/20 01:21:30;;;;;;;7.00;6.40;;;;;;;22.58;100.00;100732.38;4994707;28;21112;-72
2023/08/20 01:24:17;;;;;;;8.85;6.90;;;;;;;22.54;100.00;100730.94;5003741;28;20049;-72
2023/08/20 01:26:58;;;;;;;7.32;6.60;;;;;;;22.43;100.00;100741.88;5013036;28;20048;-74
2023/08/20 01:29:29;;;;;;;9.55;6.30;;;;;;;22.39;100.00;100737.75;5010404;28;20045;-74
2023/08/20 01:31:58;;;;;;;11.05;7.10;;;;;;;22.32;100.00;100750.09;5008990;28;20046;-75
2023/08/20 01:34:28;;;;;;;11.15;6.78;;;;;;;22.28;100.00;100737.88;5009336;28;20159;-73
2023/08/20 01:37:00;;;;;;;11.25;6.80;;;;;;;22.27;100.00;100738.88;5007342;28;20053;-74
2023/08/20 01:39:29;;;;;;;9.70;7.47;;;;;;;22.27;100.00;100744.25;5006589;28;20072;-72
2023/08/20 01:41:59;;;;;;;8.60;7.63;;;;;;;22.25;100.00;100744.41;5009779;28;20041;-73
2023/08/20 01:44:31;;;;;;;15.15;8.98;;;;;;;22.22;100.00;100744.66;5009463;28;20041;-73
2023/08/20 01:47:00;;;;;;;9.45;7.85;;;;;;;22.14;100.00;100744.53;4998116;28;20140;-74
2023/08/20 01:49:29;;;;;;;8.65;7.75;;;;;;;22.10;100.00;100744.91;5007416;28;20077;-73
2023/08/20 01:51:57;;;;;;;10.00;7.90;;;;;;;21.97;100.00;100732.50;4997046;28;20409;-74
2023/08/20 01:54:26;;;;;;;9.40;7.38;;;;;;;21.97;100.00;100727.13;5022433;28;20461;-73
2023/08/20 01:56:54;;;;;;;7.38;6.63;;;;;;;22.05;100.00;100748.88;5022073;28;20050;-73
2023/08/20 01:59:25;;;;;;;8.70;7.60;;;;;;;22.05;100.00;100742.63;5000602;28;20457;-74
2023/08/20 02:01:58;;;;;;;8.43;6.88;;;;;;;22.08;100.00;100742.34;5000021;28;20140;-73
2023/08/20 02:04:27;;;;;;;12.07;8.40;;;;;;;22.02;100.00;100742.94;5008648;28;20473;-73
2023/08/20 02:06:58;;;;;;;11.55;7.65;;;;;;;21.91;100.00;100751.06;5014912;28;20092;-73
2023/08/20 02:09:32;;;;;;;13.27;8.52;;;;;;;21.87;100.00;100757.75;5017919;28;20568;-73
2023/08/20 02:12:02;;;;;;;10.45;8.18;;;;;;;21.88;100.00;100757.56;5015335;28;20542;-74
2023/08/20 02:14:34;;;;;;;10.70;7.38;;;;;;;21.84;100.00;100758.84;5011469;28;20049;-73
2023/08/20 02:17:16;;;;;;;10.30;8.02;;;;;;;21.85;100.00;100762.41;5031388;28;20072;-74
2023/08/20 02:19:47;;;;;;;10.45;7.55;;;;;;;21.84;100.00;100761.56;5027448;28;20061;-74
2023/08/20 02:22:15;;;;;;;;;;;;;;;21.86;100.00;100759.59;5037584;28;20076;-73
2023/08/20 02:24:43;;;;;;;10.98;7.63;;;;;;;21.81;100.00;100747.50;5036327;28;19924;-74
2023/08/20 02:27:15;;;;;;;9.23;6.88;;;;;;;21.83;100.00;100757.16;5034342;28;20042;-73
2023/08/20 02:29:45;;;;;;;8.25;7.05;;;;;;;21.79;100.00;100753.00;4998260;28;20132;-74
2023/08/20 02:32:16;;;;;;;8.25;7.45;;;;;;;21.69;100.00;100744.91;4978944;28;20037;-75
2023/08/20 02:34:51;;;;;;;9.50;8.07;;;;;;;21.73;100.00;100748.16;5010636;28;20119;-74
2023/08/20 02:37:20;;;;;;;9.40;8.10;;;;;;;21.67;100.00;100733.38;5025741;28;20057;-74
2023/08/20 02:39:49;;;;;;;12.60;7.32;;;;;;;21.77;100.00;100749.59;5032301;28;20048;-75
2023/08/20 02:42:17;;;;;;;8.20;7.40;;;;;;;21.74;100.00;100738.22;5012444;28;20136;-74
2023/08/20 02:44:45;;;;;;;11.93;7.97;;;;;;;21.80;100.00;100749.31;5005520;28;20077;-73
2023/08/20 02:47:13;;;;;;;11.50;8.00;;;;;;;21.83;100.00;100751.75;4999274;28;20043;-74
2023/08/20 02:49:43;;;;;;;8.75;7.85;;;;;;;21.81;100.00;100745.66;5033791;28;20045;-74
2023/08/20 02:52:12;;;;;;;9.60;7.93;;;;;;;21.79;100.00;100747.63;4980091;28;20045;-74
2023/08/20 02:54:41;;;;;;;8.70;7.70;;;;;;;21.78;100.00;100739.66;5009428;28;20040;-73
2023/08/20 02:57:10;;;;;;;9.85;7.40;;;;;;;21.77;100.00;100746.03;5015310;28;20136;-74
2023/08/20 02:59:40;;;;;;;8.60;7.47;;;;;;;21.77;100.00;100749.59;5016280;28;20060;-74
2023/08/20 03:02:08;;;;;;;8.52;7.68;;;;;;;21.80;100.00;100743.09;5000307;28;20847;-74
2023/08/20 03:04:40;;;;;;;9.80;8.55;;;;;;;21.77;100.00;100736.13;5008173;28;20045;-75
2023/08/20 03:07:10;;;;;;;10.32;8.07;;;;;;;21.87;100.00;100742.41;4995240;28;20440;-75
2023/08/20 03:09:38;;;;;;;9.73;7.63;;;;;;;21.93;100.00;100735.59;5015289;28;20060;-75
2023/08/20 03:12:08;;;;;;;9.88;8.27;;;;;;;21.91;100.00;100726.78;5032216;28;20453;-75
2023/08/20 03:14:37;;;;;;;9.13;8.02;;;;;;;21.89;100.00;100724.22;5024687;28;20128;-74
2023/08/20 03:17:05;;;;;;;12.32;8.10;;;;;;;21.90;100.00;100720.56;5011477;28;20046;-74
2023/08/20 03:19:35;;;;;;;9.25;8.15;;;;;;;21.91;100.00;100727.66;5029599;28;20061;-74
2023/08/20 03:22:05;;;;;;;;;;;;;;;21.87;100.00;100728.94;5034932;28;20037;-72
2023/08/20 03:24:35;;;;;;;8.93;7.90;;;;;;;21.71;100.00;100707.03;5005741;28;19929;-73
2023/08/20 03:27:05;;;;;;;9.55;7.40;;;;;;;21.79;100.00;100731.44;5016733;28;20054;-74
2023/08/20 03:29:35;;;;;;;12.10;7.90;;;;;;;21.72;100.00;100722.22;5031997;28;20136;-72
2023/08/20 03:32:03;;;;;;;9.20;8.07;;;;;;;21.68;100.00;100724.31;5032504;28;20045;-74
2023/08/20 03:34:34;;;;;;;9.68;8.57;;;;;;;21.73;100.00;100729.28;5008972;28;20651;-73
2023/08/20 03:37:03;;;;;;;8.85;7.95;;;;;;;21.64;100.00;100720.19;5016108;28;20052;-73
2023/08/20 03:39:33;;;;;;;9.70;7.80;;;;;;;21.64;100.00;100730.09;4994409;28;20038;-73
2023/08/20 03:42:02;;;;;;;10.48;8.25;;;;;;;21.61;100.00;100733.91;5013052;28;20045;-73
2023/08/20 03:44:32;;;;;;;9.27;7.80;;;;;;;21.58;100.00;100747.66;4992932;28;20073;-74
2023/08/20 03:47:02;;;;;;;10.93;8.23;;;;;;;21.55;100.00;100744.41;5008349;28;20046;-73
2023/08/20 03:49:31;;;;;;;11.70;8.57;;;;;;;21.54;100.00;100740.00;5013107;28;20053;-73
2023/08/20 03:52:01;;;;;;;9.35;8.05;;;;;;;21.56;100.00;100735.31;4995429;28;20049;-73
2023/08/20 03:54:34;;;;;;;10.52;8.40;;;;;;;21.60;100.00;100747.53;5008633;28;20103;-73
2023/08/20 03:57:04;;;;;;;10.95;8.65;;;;;;;21.60;100.00;100742.13;5008264;28;20095;-73
2023/08/20 03:59:32;;;;;;;10.03;8.93;;;;;;;21.56;100.00;100749.66;5013757;28;20045;-74
2023/08/20 04:02:00;;;;;;;9.95;8.68;;;;;;;21.50;100.00;100752.88;5015108;28;20049;-73
2023/08/20 04:04:30;;;;;;;10.43;9.15;;;;;;;21.52;100.00;100763.53;5006733;28;20040;-73
2023/08/20 04:06:59;;;;;;;12.45;9.13;;;;;;;21.48;100.00;100770.16;5010604;28;20046;-73
2023/08/20 04:09:27;;;;;;;10.88;9.20;;;;;;;21.42;100.00;100770.66;5007936;28;20057;-72
2023/08/20 04:11:55;;;;;;;14.30;9.43;;;;;;;21.39;100.00;100773.66;5015777;28;20041;-73
2023/08/20 04:14:30;;;;;;;15.68;9.52;;;;;;;21.37;100.00;100778.31;4986707;28;21908;-73
2023/08/20 04:16:58;;;;;;;12.45;9.07;;;;;;;21.43;100.00;100791.25;5014038;28;20045;-73
2023/08/20 04:19:30;;;;;;;11.57;8.65;;;;;;;21.47;100.00;100784.59;5005279;28;20042;-73
2023/08/20 04:21:59;;;;;;;10.85;9.52;;;;;;;21.50;100.00;100790.59;4993024;28;20048;-72
2023/08/20 04:24:27;;;;;;;10.30;8.95;;;;;;;21.49;100.00;100782.63;4989903;28;20056;-73
2023/08/20 04:26:55;;;;;;;10.90;9.05;;;;;;;21.48;100.00;100781.78;5014854;28;20049;-72
2023/08/20 04:29:28;;;;;;;12.07;9.60;;;;;;;21.50;100.00;100784.34;5013456;28;20542;-73
2023/08/20 04:31:56;;;;;;;11.52;9.23;;;;;;;21.48;100.00;100786.31;4992689;28;20056;-73
2023/08/20 04:34:24;;;;;;;12.95;9.60;;;;;;;21.52;100.00;100783.25;5007704;28;20127;-73
2023/08/20 04:36:58;;;;;;;12.00;9.35;;;;;;;21.62;100.00;100783.28;5015327;28;20041;-72
2023/08/20 04:39:26;;;;;;;11.88;8.90;;;;;;;21.67;100.00;100781.91;5030720;28;20045;-73
2023/08/20 04:41:59;;;;;;;12.98;9.63;;;;;;;21.70;100.00;100778.94;5015754;28;20097;-72
2023/08/20 04:44:33;;;;;;;14.05;9.48;;;;;;;21.73;100.00;100772.41;5007476;28;20038;-73
2023/08/20 04:47:03;;;;;;;12.43;8.90;;;;;;;21.67;100.00;100756.78;5013694;28;20041;-72
2023/08/20 04:49:37;;;;;;;15.15;10.50;;;;;;;21.84;100.00;100785.81;5031348;28;20171;-72
2023/08/20 04:52:06;;;;;;;13.32;9.70;;;;;;;21.90;100.00;100782.56;5011228;28;20037;-73
2023/08/20 04:54:34;;;;;;;11.43;10.20;;;;;;;21.94;100.00;100775.06;4991690;28;20609;-73
2023/08/20 04:57:04;;;;;;;12.00;9.93;;;;;;;21.95;100.00;100771.38;5008907;28;20099;-74
2023/08/20 04:59:34;;;;;;;13.48;9.75;;;;;;;22.11;100.00;100787.94;5029819;28;20049;-74
2023/08/20 05:02:25;;;;;;;12.05;9.98;;;;;;;22.18;100.00;100790.97;5030660;28;20053;-73
2023/08/20 05:05:01;;;;;;;10.27;9.07;;;;;;;22.21;100.00;100796.91;4989693;28;20034;-72
2023/08/20 05:07:33;;;;;;;11.90;9.60;;;;;;;22.22;100.00;100797.75;5011261;28;20080;-73
2023/08/20 05:10:02;;;;;;;;;;;;;;;22.25;100.00;100803.75;5031379;28;20045;-72
2023/08/20 05:12:31;;;;;;;12.90;10.73;;;;;;;22.27;100.00;100806.31;5008185;28;19921;-72
2023/08/20 05:15:03;;;;;;;12.45;10.02;;;;;;;22.26;100.00;100800.06;5009278;28;20092;-73
2023/08/20 05:17:35;;;;;;;17.63;10.88;;;;;;;22.23;100.00;100794.06;5014714;28;20041;-74
2023/08/20 05:20:05;;;;;;;15.00;10.20;;;;;;;22.25;100.00;100808.28;5017869;28;20041;-74
2023/08/20 05:22:36;;;;;;;12.00;9.80;;;;;;;21.96;100.00;100760.47;4994822;28;20141;-73
2023/08/20 05:25:09;;;;;;;13.40;9.52;;;;;;;22.27;100.00;100814.41;5023087;28;20042;-73
2023/08/20 05:27:41;;;;;;;11.77;10.00;;;;;;;22.33;100.00;100825.53;5014612;28;20124;-73
2023/08/20 05:30:12;;;;;;;13.98;9.95;;;;;;;22.37;100.00;100815.28;4993825;28;20601;-73
2023/08/20 05:32:42;;;;;;;10.95;9.05;;;;;;;22.39;100.00;100813.31;5008592;28;20045;-73
2023/08/20 05:35:11;;;;;;;;;;;;;;;22.41;100.00;100811.31;5004632;28;20042;-72
2023/08/20 05:37:44;;;;;;;12.40;9.35;;;;;;;22.44;100.00;100811.06;5013507;28;19964;-72
2023/08/20 05:40:14;;;;;;;14.30;9.57;;;;;;;22.56;100.00;100825.28;5007033;28;20056;-72
2023/08/20 05:42:43;;;;;;;11.80;9.48;;;;;;;22.59;100.00;100816.91;5012682;28;20060;-72
2023/08/20 05:45:13;;;;;;;15.38;10.15;;;;;;;22.74;100.00;100816.38;4984664;28;20057;-73
2023/08/20 05:47:41;;;;;;;18.27;10.50;;;;;;;22.92;100.00;100830.06;5009217;28;20052;-73
2023/08/20 05:50:10;;;;;;;13.23;9.73;;;;;;;23.03;100.00;100834.47;4995111;28;20077;-72
2023/08/20 05:52:38;;;;;;;13.10;9.30;;;;;;;23.11;100.00;100818.44;4994987;28;20054;-73
2023/08/20 05:55:07;;;;;;;12.18;9.25;;;;;;;23.19;100.00;100815.00;5002854;28;20040;-73
2023/08/20 05:57:37;;;;;;;12.40;10.05;;;;;;;23.35;100.00;100837.75;5005712;28;20046;-73
2023/08/20 06:00:07;;;;;;;11.80;9.52;;;;;;;23.38;100.00;100836.59;5009146;28;20050;-73
2023/08/20 06:02:41;;;;;;;11.55;8.80;;;;;;;23.45;100.00;100845.88;5011167;28;20057;-72
2023/08/20 06:05:12;;;;;;;13.25;8.80;;;;;;;23.54;100.00;100846.88;5002403;28;20447;-73
2023/08/20 06:07:41;;;;;;;10.45;8.82;;;;;;;23.55;100.00;100824.25;5002912;28;20180;-74
2023/08/20 06:10:11;;;;;;;12.35;9.43;;;;;;;23.70;100.00;100839.00;4995428;28;20514;-73
2023/08/20 06:12:40;;;;;;;9.55;8.50;;;;;;;23.81;100.00;100837.97;5009974;28;20049;-72
2023/08/20 06:15:09;;;;;;;10.20;8.38;;;;;;;23.94;100.00;100831.25;5017722;28;20042;-73
2023/08/20 06:17:37;;;;;;;11.00;8.75;;;;;;;24.02;100.00;100828.66;5025643;28;20050;-72
2023/08/20 06:20:11;;;;;;;12.13;9.30;;;;;;;24.14;100.00;100837.44;5019597;28;20046;-72
2023/08/20 06:22:43;;;;;;;12.80;9.55;;;;;;;24.24;100.00;100851.00;5001438;28;20082;-73
2023/08/20 06:25:38;;;;;;;11.32;8.80;;;;;;;24.36;100.00;100852.50;5006673;28;20069;-73
2023/08/20 06:28:10;;;;;;;12.30;8.75;;;;;;;24.50;100.00;100851.13;5025605;28;20053;-72
2023/08/20 06:30:39;;;;;;;9.73;8.32;;;;;;;24.63;100.00;100847.06;4996943;28;20058;-73
2023/08/20 06:33:09;;;;;;;11.20;8.88;;;;;;;24.83;100.00;100859.50;4989972;28;20137;-73
2023/08/20 06:35:41;;;;;;;11.00;8.60;;;;;;;25.04;100.00;100861.06;4937642;28;20042;-72
2023/08/20 06:38:09;;;;;;;9.23;7.97;;;;;;;25.26;100.00;100865.19;4997037;28;20104;-74
2023/08/20 06:40:39;;;;;;;9.57;8.30;;;;;;;25.40;100.00;100860.06;5011100;28;20630;-76
2023/08/20 06:43:13;;;;;;;11.60;9.17;;;;;;;25.51;100.00;100867.09;4978426;28;20064;-72
2023/08/20 06:45:41;;;;;;;12.18;8.77;;;;;;;25.50;100.00;100866.25;4973144;28;20061;-73
2023/08/20 06:48:10;;;;;;;8.98;7.95;;;;;;;25.64;100.00;100864.03;4999569;28;20107;-73
2023/08/20 06:50:43;;;;;;;12.73;8.95;;;;;;;25.85;100.00;100864.50;4983844;28;20074;-74
2023/08/20 06:53:18;;;;;;;11.35;8.63;;;;;;;26.02;100.00;100858.19;4999037;28;20053;-73
2023/08/20 06:55:48;;;;;;;8.60;7.80;;;;;;;26.19;100.00;100857.25;4989670;28;20607;-74
2023/08/20 06:58:19;;;;;;;10.63;8.27;;;;;;;26.48;100.00;100859.63;4997912;28;20145;-73
2023/08/20 07:00:47;;;;;;;10.35;8.02;;;;;;;26.65;100.00;100868.69;4995170;28;20057;-73
2023/08/20 07:03:16;;;;;;;9.20;7.65;;;;;;;26.74;100.00;100847.84;4993599;28;20054;-73
2023/08/20 07:05:46;;;;;;;10.07;7.47;;;;;;;27.21;100.00;100867.19;4990822;28;20042;-73
2023/08/20 07:08:15;;;;;;;9.10;7.28;;;;;;;27.41;100.00;100867.69;5014904;28;20042;-73
2023/08/20 07:10:45;;;;;;;11.75;8.02;;;;;;;27.62;100.00;100854.47;4988844;28;20046;-73
2023/08/20 07:13:13;;;;;;;9.85;6.95;;;;;;;27.91;100.00;100859.34;4998106;28;20557;-73
2023/08/20 07:15:42;;;;;;;;;;;;;;;28.06;100.00;100864.94;4989286;28;20042;-73
2023/08/20 07:18:14;;;;;;;8.77;7.40;;;;;;;27.93;100.00;100868.19;5015246;28;19964;-74
2023/08/20 07:20:43;;;;;;;8.75;7.47;;;;;;;27.90;100.00;100874.81;5000025;28;20302;-74
2023/08/20 07:23:13;;;;;;;10.50;7.43;;;;;;;27.77;100.00;100873.66;4977875;28;20056;-72
2023/08/20 07:25:42;;;;;;;9.20;7.18;;;;;;;27.80;100.00;100870.59;4993413;28;20042;-74
2023/08/20 07:28:10;;;;;;;9.20;7.47;;;;;;;27.74;100.00;100869.41;4997499;28;20042;-74
2023/08/20 07:30:39;;;;;;;9.95;7.63;;;;;;;27.75;100.00;100871.09;5014798;28;20050;-74
2023/08/20 07:33:08;;;;;;;10.82;7.88;;;;;;;27.78;100.00;100878.94;4995146;28;20045;-74
2023/08/20 07:35:36;;;;;;;8.65;7.43;;;;;;;27.79;100.00;100882.50;4988553;28;20052;-75
2023/08/20 07:38:08;;;;;;;8.40;7.45;;;;;;;27.75;100.00;100875.69;5008379;28;20391;-74
2023/08/20 07:40:38;;;;;;;10.18;7.95;;;;;;;27.75;100.00;100881.13;4971365;28;20108;-74
2023/08/20 07:43:08;;;;;;;8.20;7.40;;;;;;;27.83;100.00;100882.00;5014449;28;20396;-74
2023/08/20 07:45:37;;;;;;;9.98;8.32;;;;;;;27.78;100.00;100875.38;4986698;28;20054;-74
2023/08/20 07:48:06;;;;;;;9.43;8.25;;;;;;;27.88;100.00;100882.31;4997949;28;20050;-74
2023/08/20 07:50:37;;;;;;;9.88;8.20;;;;;;;27.95;100.00;100877.03;4994858;28;20061;-74
2023/08/20 07:53:06;;;;;;;8.52;7.40;;;;;;;27.93;100.00;100876.34;5007916;28;20054;-73
2023/08/20 07:55:38;;;;;;;13.25;8.10;;;;;;;27.93;100.00;100873.63;4988204;28;20414;-74
2023/08/20 07:58:07;;;;;;;11.15;8.43;;;;;;;28.04;100.00;100880.59;5007362;28;20045;-74
2023/08/20 08:00:36;;;;;;;9.32;8.27;;;;;;;28.14;100.00;100881.25;4983086;28;20100;-75
2023/08/20 08:03:05;;;;;;;8.68;7.78;;;;;;;28.25;100.00;100883.63;4993012;28;20491;-75
2023/08/20 08:05:34;;;;;;;11.77;8.15;;;;;;;28.22;100.00;100881.25;4994571;28;20038;-74
2023/08/20 08:08:05;;;;;;;10.45;9.35;;;;;;;28.24;100.00;100871.88;4993196;28;20041;-73
2023/08/20 08:10:34;;;;;;;9.63;8.63;;;;;;;28.35;98.02;100886.16;4995916;28;20050;-73
2023/08/20 08:13:04;;;;;;;9.95;8.68;;;;;;;28.32;100.00;100875.63;5012830;28;20437;-73
2023/08/20 08:15:35;;;;;;;9.60;8.60;;;;;;;28.13;100.00;100852.34;4992363;28;20053;-74
2023/08/20 08:18:03;;;;;;;10.57;9.38;;;;;;;28.16;99.52;100888.25;4991346;28;20061;-73
2023/08/20 08:20:31;;;;;;;11.27;10.15;;;;;;;28.04;99.88;100883.31;5016421;28;20497;-73
2023/08/20 08:23:01;;;;;;;12.40;10.18;;;;;;;27.95;100.00;100893.38;4974446;28;20061;-73
2023/08/20 08:25:29;;;;;;;11.75;10.27;;;;;;;27.86;100.00;100894.41;5006607;28;20060;-74
2023/08/20 08:27:59;;;;;;;14.07;10.18;;;;;;;27.75;100.00;100892.03;4963908;28;20077;-75
2023/08/20 08:30:30;;;;;;;12.93;10.07;;;;;;;27.77;100.00;100898.16;5013257;28;20106;-73
2023/08/20 08:32:59;;;;;;;11.43;10.20;;;;;;;27.78;100.00;100897.13;4992102;28;20038;-73
2023/08/20 08:35:27;;;;;;;12.05;10.50;;;;;;;27.73;100.00;100894.06;5006527;28;20093;-74
2023/08/20 08:37:58;;;;;;;12.75;10.88;;;;;;;27.70;100.00;100886.28;4984350;28;20165;-73
2023/08/20 08:40:30;;;;;;;11.90;10.05;;;;;;;27.82;100.00;100903.94;4992310;28;20049;-73
2023/08/20 08:42:58;;;;;;;14.27;10.80;;;;;;;27.89;100.00;100904.94;5000353;28;20054;-73
2023/08/20 08:45:29;;;;;;;13.70;9.88;;;;;;;28.05;100.00;100899.47;5005747;28;20049;-73
2023/08/20 08:48:03;;;;;;;14.70;10.30;;;;;;;28.16;99.23;100888.25;4972833;28;20034;-74
2023/08/20 08:50:33;;;;;;;11.90;10.75;;;;;;;28.05;99.38;100879.56;5011054;28;20046;-73
2023/08/20 08:53:01;;;;;;;12.17;10.90;;;;;;;28.22;100.00;100895.72;4991136;28;20060;-73
2023/08/20 08:55:30;;;;;;;14.13;10.75;;;;;;;28.48;99.16;100906.38;4992662;28;20060;-73
2023/08/20 08:58:00;;;;;;;11.10;10.00;;;;;;;28.69;96.61;100904.91;4973777;28;20144;-73
2023/08/20 09:00:29;;;;;;;10.95;9.43;;;;;;;28.87;93.35;100890.06;4995146;28;20054;-73
2023/08/20 09:02:58;;;;;;;12.85;9.88;;;;;;;29.17;91.50;100904.69;4995127;28;20506;-73
2023/08/20 09:05:27;;;;;;;16.00;10.88;;;;;;;28.86;92.27;100869.28;5000016;28;20095;-74
2023/08/20 09:07:57;;;;;;;13.05;10.88;;;;;;;28.77;93.23;100892.13;5013687;28;20112;-73
2023/08/20 09:10:36;;;;;;;13.30;11.80;;;;;;;28.43;95.04;100892.44;5000226;28;20067;-73
2023/08/20 09:13:06;;;;;;;14.10;11.85;;;;;;;28.10;98.11;100883.47;5017825;28;20053;-72
2023/08/20 09:15:35;;;;;;;13.25;11.32;;;;;;;28.02;100.00;100886.19;5030108;28;20065;-74
2023/08/20 09:18:05;;;;;;;12.50;10.80;;;;;;;27.99;99.59;100892.00;5008865;28;20041;-74
2023/08/20 09:20:37;;;;;;;12.27;11.02;;;;;;;27.94;98.14;100894.41;5030755;28;20468;-75
2023/08/20 09:23:12;;;;;;;11.82;10.48;;;;;;;27.85;98.87;100896.28;5031243;28;20072;-73
2023/08/20 09:25:49;;;;;;;12.95;10.98;;;;;;;27.83;100.00;100894.75;5000134;28;20107;-74
2023/08/20 09:28:17;;;;;;;15.23;11.80;;;;;;;27.89;100.00;100885.88;5008198;28;20064;-73
2023/08/20 09:31:01;;;;;;;13.25;11.13;;;;;;;27.81;97.87;100888.63;5029643;28;20790;-74
2023/08/20 09:33:33;;;;;;;12.52;10.93;;;;;;;27.69;96.94;100881.84;4993736;28;20073;-73
2023/08/20 09:36:09;;;;;;;11.43;10.23;;;;;;;27.62;99.05;100887.09;5011045;28;20136;-72
2023/08/20 09:38:41;;;;;;;11.38;10.15;;;;;;;27.59;97.03;100882.84;5025261;28;20045;-73
2023/08/20 09:41:12;;;;;;;12.07;10.75;;;;;;;27.62;97.84;100888.97;4994402;28;20636;-74
2023/08/20 09:43:42;;;;;;;13.98;11.27;;;;;;;27.66;99.39;100884.91;5010257;28;20045;-75
2023/08/20 09:46:11;;;;;;;12.93;10.27;;;;;;;27.74;99.01;100882.16;5006210;28;20050;-74
2023/08/20 09:48:42;;;;;;;14.15;10.25;;;;;;;27.84;95.38;100885.56;5010319;28;20049;-74
2023/08/20 09:51:20;;;;;;;11.07;9.88;;;;;;;27.97;94.15;100882.31;5008554;28;20052;-73
2023/08/20 09:54:00;;;;;;;13.05;9.80;;;;;;;27.99;92.45;100889.28;5015909;28;20045;-74
2023/08/20 09:56:31;;;;;;;13.32;9.13;;;;;;;28.04;90.23;100892.31;5013422;28;21536;-73
2023/08/20 09:59:01;;;;;;;11.75;10.38;;;;;;;28.11;92.81;100892.50;5030451;28;20042;-74
2023/08/20 10:01:31;;;;;;;11.85;9.93;;;;;;;28.04;90.84;100894.19;5012281;28;20095;-74
2023/08/20 10:04:01;;;;;;;11.32;10.10;;;;;;;28.06;92.24;100887.56;5001277;28;20071;-73
2023/08/20 10:06:34;;;;;;;12.88;11.50;;;;;;;28.10;93.66;100888.91;5018053;28;20069;-74
2023/08/20 10:09:03;;;;;;;11.00;9.45;;;;;;;28.13;90.67;100888.56;5047058;28;20064;-73
2023/08/20 10:11:32;;;;;;;10.10;9.05;;;;;;;28.20;85.26;100891.47;5030329;28;20042;-74
2023/08/20 10:14:01;;;;;;;;;;;;;;;28.31;86.71;100885.69;5015013;28;20536;-75
2023/08/20 10:16:36;;;;;;;11.25;9.98;;;;;;;28.47;85.43;100882.03;5032099;28;19928;-73
2023/08/20 10:19:10;;;;;;;10.50;9.38;;;;;;;28.55;81.29;100879.28;5032231;28;20053;-73
2023/08/20 10:21:47;;;;;;;11.25;10.07;;;;;;;28.57;83.72;100869.91;5015923;28;20520;-73
2023/08/20 10:24:19;;;;;;;12.80;10.30;;;;;;;28.82;86.56;100883.41;5013356;28;20141;-73
2023/08/20 10:26:48;;;;;;;14.52;11.02;;;;;;;29.01;86.90;100880.25;5028953;28;20068;-73
2023/08/20 10:29:39;;;;;;;14.18;11.63;;;;;;;29.10;87.89;100886.53;5012732;28;20046;-73
2023/08/20 10:32:10;;;;;;;11.93;10.70;;;;;;;29.06;83.15;100885.19;5016583;28;20140;-73
2023/08/20 10:34:40;;;;;;;10.23;8.93;;;;;;;29.07;80.20;100881.41;5014379;28;20061;-73
2023/08/20 10:37:19;;;;;;;14.05;9.75;;;;;;;29.10;80.09;100878.34;5012672;28;20822;-74
2023/08/20 10:39:55;;;;;;;11.18;10.07;;;;;;;29.19;82.71;100872.63;5016272;28;20046;-73
2023/08/20 10:42:27;;;;;;;11.45;10.15;;;;;;;29.24;82.12;100864.78;5002264;28;20053;-74
2023/08/20 10:45:03;;;;;;;10.75;9.52;;;;;;;29.33;81.67;100868.28;5028921;28;20053;-74
2023/08/20 10:47:48;;;;;;;9.50;8.60;;;;;;;29.44;75.87;100865.13;4992854;28;20103;-74
2023/08/20 10:50:19;;;;;;;10.75;8.63;;;;;;;29.42;72.86;100860.91;5035363;28;20516;-73
2023/08/20 10:52:57;;;;;;;9.85;8.05;;;;;;;29.47;71.89;100863.94;5013281;28;20672;-75
2023/08/20 10:55:25;;;;;;;8.57;7.18;;;;;;;29.60;67.06;100869.59;5013854;28;20048;-75
2023/08/20 10:57:59;;;;;;;8.23;7.43;;;;;;;29.71;68.13;100865.59;4994315;28;20057;-73
2023/08/20 11:00:28;;;;;;;9.75;6.60;;;;;;;29.81;63.66;100868.91;4991214;28;20140;-75
2023/08/20 11:02:58;;;;;;;10.45;6.43;;;;;;;29.86;61.70;100861.88;5033810;28;20071;-73
2023/08/20 11:05:28;;;;;;;8.32;5.60;;;;;;;30.02;57.17;100868.22;5001510;28;20112;-76
2023/08/20 11:07:59;;;;;;;8.15;5.40;;;;;;;29.88;55.43;100812.53;5011614;28;20041;-73
2023/08/20 11:10:29;;;;;;;7.32;6.63;;;;;;;30.07;62.93;100865.75;4998824;28;20065;-73
2023/08/20 11:12:57;;;;;;;8.52;6.80;;;;;;;30.10;64.60;100870.84;5038163;28;20053;-74
2023/08/20 11:15:26;;;;;;;7.88;6.40;;;;;;;30.20;61.51;100861.38;5033763;28;20394;-74
2023/08/20 11:17:57;;;;;;;;;;;;;;;30.32;61.52;100865.31;5005299;28;20068;-74
2023/08/20 11:20:25;;;;;;;8.10;6.53;;;;;;;30.41;61.93;100860.59;5016731;28;19920;-76
2023/08/20 11:22:54;;;;;;;9.55;6.93;;;;;;;30.52;62.35;100862.00;4999650;28;20053;-73
2023/08/20 11:25:25;;;;;;;8.60;6.65;;;;;;;30.65;61.65;100864.94;5036993;28;20037;-73
2023/08/20 11:27:53;;;;;;;8.10;6.82;;;;;;;30.67;59.64;100862.88;5007276;28;20430;-73
2023/08/20 11:30:24;;;;;;;8.23;7.05;;;;;;;30.70;60.79;100866.03;5012768;28;20045;-73